createdAt,value
2022-12-01T00:01:10.186Z,23.00
2022-12-01T00:03:37.537Z,23.10
2022-12-01T00:06:16.233Z,22.60
2022-12-01T00:09:04.637Z,23.77
2022-12-01T00:11:32.236Z,21.37
2022-12-01T00:13:59.275Z,23.47
2022-12-01T00:16:26.117Z,21.90
2022-12-01T00:18:53.830Z,23.73
2022-12-01T00:21:22.862Z,24.30
2022-12-01T00:23:53.159Z,23.37
2022-12-01T00:26:21.077Z,24.77
2022-12-01T00:28:56.434Z,23.40
2022-12-01T00:31:23.948Z,23.53
2022-12-01T00:33:51.012Z,22.90
2022-12-01T00:36:18.230Z,22.60
2022-12-01T00:38:45.316Z,23.03
2022-12-01T00:41:12.310Z,22.97
2022-12-01T00:43:40.318Z,22.53
2022-12-01T00:46:07.302Z,23.10
2022-12-01T00:48:34.260Z,22.23
2022-12-01T00:51:01.144Z,21.13
2022-12-01T00:53:27.891Z,23.93
2022-12-01T00:55:55.180Z,23.03
2022-12-01T00:58:23.308Z,22.17
2022-12-01T01:00:56.984Z,22.43
2022-12-01T01:03:23.740Z,22.83
2022-12-01T01:05:50.890Z,23.10
2022-12-01T01:08:17.802Z,21.73
2022-12-01T01:10:47.220Z,21.90
2022-12-01T01:13:15.251Z,22.33
2022-12-01T01:15:42.047Z,20.87
2022-12-01T01:18:10.152Z,22.10
2022-12-01T01:20:37.425Z,20.73
2022-12-01T01:23:04.308Z,22.17
2022-12-01T01:25:33.141Z,24.20
2022-12-01T01:27:59.998Z,21.87
2022-12-01T01:30:26.849Z,25.87
2022-12-01T01:32:53.688Z,26.57
2022-12-01T01:35:20.507Z,26.67
2022-12-01T01:37:47.312Z,25.67
2022-12-01T01:40:14.089Z,27.20
2022-12-01T01:42:40.835Z,25.27
2022-12-01T01:45:22.326Z,25.17
2022-12-01T01:47:51.416Z,23.67
2022-12-01T01:50:22.775Z,27.63
2022-12-01T01:53:03.099Z,25.73
2022-12-01T01:55:31.934Z,23.50
2022-12-01T01:57:59.415Z,27.10
2022-12-01T02:00:26.261Z,26.90
2022-12-01T02:02:53.893Z,25.67
2022-12-01T02:05:26.944Z,26.93
2022-12-01T02:07:57.273Z,27.17
2022-12-01T02:10:56.821Z,28.37
2022-12-01T02:13:46.874Z,27.00
2022-12-01T02:16:24.235Z,28.67
2022-12-01T02:18:57.326Z,28.73
2022-12-01T02:21:45.508Z,30.13
2022-12-01T02:24:21.012Z,29.50
2022-12-01T02:27:01.161Z,28.10
2022-12-01T02:29:57.164Z,29.40
2022-12-01T02:32:48.330Z,26.50
2022-12-01T02:35:20.937Z,27.37
2022-12-01T02:38:13.029Z,25.60
2022-12-01T02:40:58.136Z,24.60
2022-12-01T02:43:43.770Z,26.93
2022-12-01T02:46:39.522Z,28.17
2022-12-01T02:49:15.275Z,27.93
2022-12-01T02:51:44.850Z,28.47
2022-12-01T02:54:14.263Z,28.57
2022-12-01T02:56:43.692Z,27.23
2022-12-01T02:59:15.250Z,28.07
2022-12-01T03:02:24.780Z,29.23
2022-12-01T03:05:18.762Z,29.40
2022-12-01T03:08:13.627Z,32.07
2022-12-01T03:10:48.411Z,31.27
2022-12-01T03:13:18.191Z,30.53
2022-12-01T03:16:22.248Z,32.13
2022-12-01T03:19:00.320Z,31.60
2022-12-01T03:21:32.338Z,29.33
2022-12-01T03:24:06.536Z,32.07
2022-12-01T03:26:36.332Z,31.20
2022-12-01T03:29:23.781Z,29.50
2022-12-01T03:32:17.174Z,26.80
2022-12-01T03:35:29.293Z,26.83
2022-12-01T03:38:02.720Z,27.17
2022-12-01T03:40:30.993Z,28.27
2022-12-01T03:43:07.451Z,29.97
2022-12-01T03:45:50.919Z,29.43
2022-12-01T03:48:18.372Z,27.83
2022-12-01T03:51:18.270Z,29.47
2022-12-01T03:54:01.612Z,28.67
2022-12-01T03:56:33.877Z,30.60
2022-12-01T03:59:03.001Z,29.90
2022-12-01T04:01:36.654Z,30.30
2022-12-01T04:04:09.686Z,30.33
2022-12-01T04:06:36.746Z,28.97
2022-12-01T04:09:04.432Z,28.33
2022-12-01T04:11:49.837Z,28.37
2022-12-01T04:14:16.659Z,30.20
2022-12-01T04:16:43.492Z,30.53
2022-12-01T04:19:11.674Z,31.37
2022-12-01T04:21:38.451Z,31.83
2022-12-01T04:24:05.395Z,31.33
2022-12-01T04:26:35.322Z,29.83
2022-12-01T04:29:07.114Z,30.83
2022-12-01T04:31:34.276Z,33.17
2022-12-01T04:34:01.556Z,33.87
2022-12-01T04:36:31.717Z,33.17
2022-12-01T04:38:58.664Z,32.10
2022-12-01T04:41:25.712Z,33.33
2022-12-01T04:43:56.230Z,34.17
2022-12-01T04:46:24.613Z,34.00
2022-12-01T04:48:52.236Z,34.03
2022-12-01T04:51:19.302Z,35.07
2022-12-01T04:53:46.274Z,34.97
2022-12-01T04:56:13.061Z,36.17
2022-12-01T04:58:41.074Z,37.10
2022-12-01T05:01:12.213Z,37.70
2022-12-01T05:03:45.081Z,38.90
2022-12-01T05:06:15.968Z,42.53
2022-12-01T05:08:42.846Z,45.33
2022-12-01T05:11:11.998Z,43.13
2022-12-01T05:13:43.535Z,41.40
2022-12-01T05:16:15.663Z,43.83
2022-12-01T05:18:42.695Z,39.40
2022-12-01T05:21:11.195Z,44.27
2022-12-01T05:23:39.094Z,45.57
2022-12-01T05:26:08.365Z,45.70
2022-12-01T05:28:35.547Z,47.63
2022-12-01T05:31:02.962Z,45.33
2022-12-01T05:33:31.194Z,45.20
2022-12-01T05:35:58.068Z,47.90
2022-12-01T05:38:24.933Z,43.73
2022-12-01T05:40:53.776Z,46.60
2022-12-01T05:43:28.325Z,47.37
2022-12-01T05:45:56.137Z,45.97
2022-12-01T05:48:23.233Z,48.87
2022-12-01T05:50:49.996Z,44.93
2022-12-01T05:53:17.625Z,48.37
2022-12-01T05:55:44.582Z,46.03
2022-12-01T05:58:13.427Z,43.80
2022-12-01T06:00:45.968Z,42.93
2022-12-01T06:03:13.910Z,47.63
2022-12-01T06:05:41.363Z,46.93
2022-12-01T06:08:08.343Z,46.83
2022-12-01T06:10:35.612Z,47.40
2022-12-01T06:13:02.474Z,43.17
2022-12-01T06:15:29.555Z,47.80
2022-12-01T06:17:59.516Z,45.80
2022-12-01T06:20:26.860Z,45.90
2022-12-01T06:22:54.209Z,47.10
2022-12-01T06:25:21.129Z,45.07
2022-12-01T06:27:48.071Z,46.17
2022-12-01T06:30:14.978Z,43.37
2022-12-01T06:32:41.677Z,44.50
2022-12-01T06:35:08.717Z,46.00
2022-12-01T06:37:35.640Z,45.63
2022-12-01T06:40:02.495Z,42.57
2022-12-01T06:42:30.645Z,46.10
2022-12-01T06:44:57.444Z,45.83
2022-12-01T06:47:24.276Z,42.80
2022-12-01T06:49:51.490Z,45.07
2022-12-01T06:52:18.623Z,43.17
2022-12-01T06:54:45.472Z,44.53
2022-12-01T06:57:12.701Z,42.63
2022-12-01T06:59:39.823Z,41.97
2022-12-01T07:02:06.920Z,42.00
2022-12-01T07:04:33.751Z,41.93
2022-12-01T07:07:00.474Z,43.03
2022-12-01T07:09:27.371Z,41.43
2022-12-01T07:11:54.516Z,41.83
2022-12-01T07:14:24.913Z,41.27
2022-12-01T07:16:51.932Z,39.73
2022-12-01T07:19:19.285Z,40.93
2022-12-01T07:21:46.133Z,39.97
2022-12-01T07:24:12.965Z,40.57
2022-12-01T07:26:41.252Z,40.93
2022-12-01T07:29:11.403Z,40.03
2022-12-01T07:31:38.998Z,40.07
2022-12-01T07:34:06.404Z,39.73
2022-12-01T07:36:33.531Z,40.27
2022-12-01T07:39:04.639Z,39.30
2022-12-01T07:41:31.481Z,39.63
2022-12-01T07:43:58.392Z,39.37
2022-12-01T07:46:26.930Z,40.43
2022-12-01T07:48:55.288Z,38.00
2022-12-01T07:51:23.481Z,39.53
2022-12-01T07:53:51.831Z,39.13
2022-12-01T07:56:19.968Z,39.03
2022-12-01T07:58:47.009Z,38.07
2022-12-01T08:01:19.666Z,41.73
2022-12-01T08:03:48.913Z,39.27
2022-12-01T08:06:17.333Z,39.77
2022-12-01T08:08:44.544Z,38.07
2022-12-01T08:11:15.553Z,40.37
2022-12-01T08:13:43.352Z,38.13
2022-12-01T08:16:16.107Z,39.07
2022-12-01T08:18:44.072Z,39.93
2022-12-01T08:21:16.692Z,37.70
2022-12-01T08:23:43.777Z,39.37
2022-12-01T08:26:19.140Z,39.20
2022-12-01T08:28:46.586Z,38.67
2022-12-01T08:31:19.835Z,38.87
2022-12-01T08:33:48.253Z,37.23
2022-12-01T08:36:15.713Z,39.10
2022-12-01T08:38:46.904Z,37.97
2022-12-01T08:41:15.192Z,37.13
2022-12-01T08:44:00.053Z,38.30
2022-12-01T08:46:29.421Z,39.23
2022-12-01T08:48:57.733Z,37.70
2022-12-01T08:51:25.502Z,38.13
2022-12-01T08:53:52.502Z,38.03
2022-12-01T08:56:25.564Z,38.20
2022-12-01T08:58:53.929Z,38.13
2022-12-01T09:01:21.212Z,39.13
2022-12-01T09:03:48.194Z,39.53
2022-12-01T09:06:17.716Z,40.07
2022-12-01T09:08:44.763Z,39.33
2022-12-01T09:11:28.785Z,38.93
2022-12-01T09:13:55.551Z,38.00
2022-12-01T09:16:22.413Z,38.43
2022-12-01T09:18:49.277Z,40.67
2022-12-01T09:21:24.989Z,37.73
2022-12-01T09:23:52.441Z,38.53
2022-12-01T09:26:20.260Z,39.40
2022-12-01T09:28:49.213Z,39.70
2022-12-01T09:31:18.640Z,40.10
2022-12-01T09:33:47.927Z,39.43
2022-12-01T09:36:14.949Z,39.43
2022-12-01T09:38:44.003Z,38.67
2022-12-01T09:41:27.090Z,37.67
2022-12-01T09:44:01.480Z,39.40
2022-12-01T09:46:41.410Z,38.20
2022-12-01T09:49:18.444Z,38.87
2022-12-01T09:51:45.585Z,37.93
2022-12-01T09:54:14.413Z,37.37
2022-12-01T09:56:53.423Z,36.83
2022-12-01T09:59:24.657Z,37.60
2022-12-01T10:01:58.489Z,36.53
2022-12-01T10:04:42.807Z,37.37
2022-12-01T10:07:21.190Z,35.07
2022-12-01T10:09:59.712Z,36.00
2022-12-01T10:12:30.955Z,34.70
2022-12-01T10:15:24.991Z,33.90
2022-12-01T10:18:10.837Z,32.13
2022-12-01T10:20:50.842Z,32.83
2022-12-01T10:23:37.832Z,32.40
2022-12-01T10:26:17.073Z,31.67
2022-12-01T10:28:46.921Z,32.27
2022-12-01T10:31:21.385Z,32.27
2022-12-01T10:34:04.276Z,32.90
2022-12-01T10:36:32.689Z,31.60
2022-12-01T10:39:00.446Z,33.00
2022-12-01T10:41:30.849Z,32.27
2022-12-01T10:44:01.027Z,33.97
2022-12-01T10:46:50.879Z,32.27
2022-12-01T10:49:19.360Z,31.23
2022-12-01T10:51:57.752Z,30.60
2022-12-01T10:54:41.304Z,29.77
2022-12-01T10:57:15.712Z,29.47
2022-12-01T10:59:53.640Z,29.57
2022-12-01T11:02:26.861Z,29.47
2022-12-01T11:05:02.659Z,28.70
2022-12-01T11:07:33.978Z,26.70
2022-12-01T11:10:06.835Z,26.90
2022-12-01T11:12:34.760Z,25.00
2022-12-01T11:15:02.395Z,23.77
2022-12-01T11:17:35.143Z,23.50
2022-12-01T11:20:33.051Z,24.23
2022-12-01T11:23:21.160Z,24.77
2022-12-01T11:26:10.472Z,24.90
2022-12-01T11:28:52.193Z,25.37
2022-12-01T11:31:20.687Z,24.93
2022-12-01T11:33:53.808Z,23.73
2022-12-01T11:36:34.460Z,23.90
2022-12-01T11:39:02.250Z,24.47
2022-12-01T11:41:37.500Z,25.47
2022-12-01T11:44:22.359Z,23.40
2022-12-01T11:47:01.655Z,23.90
2022-12-01T11:49:47.280Z,23.53
2022-12-01T11:52:28.636Z,23.67
2022-12-01T11:55:05.573Z,25.20
2022-12-01T11:57:37.563Z,24.60
2022-12-01T12:00:22.823Z,24.97
2022-12-01T12:03:16.807Z,24.47
2022-12-01T12:06:11.713Z,25.77
2022-12-01T12:08:51.771Z,26.87
2022-12-01T12:11:20.552Z,26.10
2022-12-01T12:13:59.425Z,25.47
2022-12-01T12:16:45.013Z,26.23
2022-12-01T12:20:06.291Z,26.30
2022-12-01T12:22:57.476Z,27.13
2022-12-01T12:25:52.850Z,26.87
2022-12-01T12:28:43.509Z,25.50
2022-12-01T12:31:35.003Z,25.93
2022-12-01T12:34:26.162Z,28.07
2022-12-01T12:37:20.827Z,25.07
2022-12-01T12:39:47.915Z,26.23
2022-12-01T12:42:49.830Z,28.00
2022-12-01T12:45:38.202Z,27.50
2022-12-01T12:48:13.882Z,27.43
2022-12-01T12:50:51.263Z,27.07
2022-12-01T12:53:21.978Z,26.37
2022-12-01T12:55:52.963Z,26.57
2022-12-01T12:58:25.463Z,26.80
2022-12-01T13:00:59.854Z,28.63
2022-12-01T13:03:43.171Z,27.10
2022-12-01T13:06:24.718Z,26.47
2022-12-01T13:08:59.184Z,28.07
2022-12-01T13:11:49.866Z,30.70
2022-12-01T13:14:29.415Z,28.60
2022-12-01T13:17:15.863Z,27.67
2022-12-01T13:19:43.888Z,28.30
2022-12-01T13:22:13.271Z,27.60
2022-12-01T13:24:40.560Z,27.87
2022-12-01T13:27:20.726Z,26.63
2022-12-01T13:29:50.518Z,29.60
2022-12-01T13:32:43.189Z,28.70
2022-12-01T13:35:25.706Z,27.77
2022-12-01T13:37:53.222Z,30.47
2022-12-01T13:40:22.549Z,31.27
2022-12-01T13:43:21.055Z,25.63
2022-12-01T13:45:49.744Z,27.07
2022-12-01T13:48:39.454Z,26.10
2022-12-01T13:51:07.045Z,27.57
2022-12-01T13:53:37.853Z,24.63
2022-12-01T13:56:16.679Z,24.03
2022-12-01T13:58:49.664Z,23.93
2022-12-01T14:01:23.245Z,26.10
2022-12-01T14:04:11.910Z,24.77
2022-12-01T14:06:50.450Z,24.67
2022-12-01T14:09:21.534Z,28.30
2022-12-01T14:12:11.316Z,23.23
2022-12-01T14:14:42.443Z,23.57
2022-12-01T14:17:31.565Z,23.37
2022-12-01T14:20:08.780Z,23.07
2022-12-01T14:22:40.742Z,25.33
2022-12-01T14:25:22.872Z,24.83
2022-12-01T14:27:53.151Z,24.40
2022-12-01T14:30:38.651Z,24.77
2022-12-01T14:33:39.509Z,23.73
2022-12-01T14:36:29.511Z,24.77
2022-12-01T14:39:05.519Z,24.07
2022-12-01T14:41:39.009Z,24.17
2022-12-01T14:44:27.568Z,25.00
2022-12-01T14:47:10.901Z,25.03
2022-12-01T14:49:52.470Z,24.07
2022-12-01T14:52:47.835Z,24.13
2022-12-01T14:55:22.209Z,22.53
2022-12-01T14:57:51.100Z,24.53
2022-12-01T15:00:21.344Z,21.80
2022-12-01T15:03:18.725Z,22.07
2022-12-01T15:05:45.950Z,23.97
2022-12-01T15:08:53.447Z,24.00
2022-12-01T15:11:26.104Z,24.77
2022-12-01T15:13:55.702Z,24.27
2022-12-01T15:16:25.811Z,25.37
2022-12-01T15:18:53.903Z,23.47
2022-12-01T15:21:30.498Z,25.47
2022-12-01T15:24:00.252Z,25.17
2022-12-01T15:26:31.643Z,25.70
2022-12-01T15:29:05.494Z,25.23
2022-12-01T15:31:34.008Z,24.70
2022-12-01T15:34:01.211Z,25.77
2022-12-01T15:36:28.329Z,25.23
2022-12-01T15:38:55.723Z,25.57
2022-12-01T15:41:31.516Z,26.17
2022-12-01T15:44:03.510Z,24.10
2022-12-01T15:46:32.794Z,25.73
2022-12-01T15:49:20.888Z,25.17
2022-12-01T15:51:50.285Z,25.40
2022-12-01T15:54:27.409Z,25.27
2022-12-01T15:56:57.109Z,26.17
2022-12-01T15:59:44.554Z,25.63
2022-12-01T16:02:20.865Z,26.07
2022-12-01T16:04:49.759Z,25.23
2022-12-01T16:07:16.944Z,27.03
2022-12-01T16:09:56.433Z,27.37
2022-12-01T16:12:26.138Z,25.43
2022-12-01T16:15:06.966Z,26.37
2022-12-01T16:17:48.355Z,25.30
2022-12-01T16:20:35.700Z,26.40
2022-12-01T16:23:09.403Z,25.50
2022-12-01T16:25:42.318Z,27.23
2022-12-01T16:28:33.113Z,27.63
2022-12-01T16:31:00.692Z,26.83
2022-12-01T16:33:29.120Z,27.07
2022-12-01T16:35:59.058Z,26.93
2022-12-01T16:38:28.987Z,28.27
2022-12-01T16:40:59.382Z,27.87
2022-12-01T16:43:27.945Z,26.37
2022-12-01T16:46:03.312Z,28.30
2022-12-01T16:48:31.239Z,28.70
2022-12-01T16:51:03.181Z,30.47
2022-12-01T16:53:30.022Z,27.50
2022-12-01T16:55:59.201Z,29.53
2022-12-01T16:58:26.576Z,29.43
2022-12-01T17:00:53.656Z,29.87
2022-12-01T17:03:23.606Z,29.00
2022-12-01T17:05:51.693Z,30.13
2022-12-01T17:08:18.859Z,30.47
2022-12-01T17:10:49.532Z,29.83
2022-12-01T17:13:17.381Z,30.87
2022-12-01T17:15:47.457Z,32.20
2022-12-01T17:18:16.228Z,30.97
2022-12-01T17:20:43.640Z,30.00
2022-12-01T17:23:11.548Z,32.30
2022-12-01T17:25:42.145Z,31.73
2022-12-01T17:28:09.016Z,31.93
2022-12-01T17:30:36.692Z,30.97
2022-12-01T17:33:03.591Z,32.20
2022-12-01T17:35:30.480Z,30.43
2022-12-01T17:37:57.261Z,29.53
2022-12-01T17:40:24.716Z,30.57
2022-12-01T17:42:51.635Z,29.70
2022-12-01T17:45:19.176Z,30.57
2022-12-01T17:47:46.240Z,28.67
2022-12-01T17:50:13.347Z,28.73
2022-12-01T17:52:40.469Z,29.80
2022-12-01T17:55:08.225Z,28.40
2022-12-01T17:57:35.163Z,29.00
2022-12-01T18:00:02.771Z,30.60
2022-12-01T18:02:29.701Z,27.57
2022-12-01T18:04:56.526Z,29.40
2022-12-01T18:07:23.554Z,30.80
2022-12-01T18:09:50.438Z,31.17
2022-12-01T18:12:17.203Z,30.73
2022-12-01T18:14:44.027Z,30.60
2022-12-01T18:17:10.895Z,29.87
2022-12-01T18:19:37.766Z,29.47
2022-12-01T18:22:04.725Z,31.17
2022-12-01T18:24:31.565Z,31.30
2022-12-01T18:26:59.100Z,30.90
2022-12-01T18:29:26.246Z,31.43
2022-12-01T18:31:57.593Z,32.27
2022-12-01T18:34:25.602Z,32.03
2022-12-01T18:36:52.824Z,30.60
2022-12-01T18:39:19.641Z,33.07
2022-12-01T18:41:46.629Z,30.30
2022-12-01T18:44:13.833Z,31.13
2022-12-01T18:46:40.824Z,32.00
2022-12-01T18:49:09.489Z,32.37
2022-12-01T18:51:38.105Z,30.73
2022-12-01T18:54:06.844Z,32.60
2022-12-01T18:56:34.232Z,30.67
2022-12-01T18:59:04.939Z,32.90
2022-12-01T19:01:46.065Z,34.20
2022-12-01T19:04:14.618Z,32.40
2022-12-01T19:06:42.492Z,32.27
2022-12-01T19:09:11.217Z,32.87
2022-12-01T19:11:40.484Z,33.43
2022-12-01T19:14:11.548Z,33.47
2022-12-01T19:16:39.861Z,32.97
2022-12-01T19:19:06.691Z,35.23
2022-12-01T19:21:33.541Z,35.23
2022-12-01T19:24:00.291Z,33.43
2022-12-01T19:26:27.304Z,32.37
2022-12-01T19:28:54.114Z,32.13
2022-12-01T19:31:23.713Z,32.73
2022-12-01T19:33:50.906Z,33.23
2022-12-01T19:36:21.680Z,32.53
2022-12-01T19:38:48.792Z,34.20
2022-12-01T19:41:16.596Z,34.43
2022-12-01T19:43:43.793Z,33.00
2022-12-01T19:46:16.988Z,31.63
2022-12-01T19:48:44.758Z,32.90
2022-12-01T19:51:23.495Z,31.17
2022-12-01T19:53:51.346Z,30.23
2022-12-01T19:56:18.494Z,33.73
2022-12-01T19:58:45.587Z,32.03
2022-12-01T20:01:15.521Z,34.30
2022-12-01T20:03:45.179Z,31.77
2022-12-01T20:06:14.688Z,32.00
2022-12-01T20:08:41.980Z,33.17
2022-12-01T20:11:09.444Z,32.97
2022-12-01T20:13:38.911Z,31.43
2022-12-01T20:16:11.823Z,32.70
2022-12-01T20:18:39.939Z,33.73
2022-12-01T20:21:17.610Z,33.47
2022-12-01T20:23:47.146Z,33.77
2022-12-01T20:26:16.113Z,31.53
2022-12-01T20:28:44.107Z,32.77
2022-12-01T20:31:25.363Z,32.43
2022-12-01T20:33:55.328Z,31.80
2022-12-01T20:36:22.823Z,30.97
2022-12-01T20:38:49.744Z,32.20
2022-12-01T20:41:17.437Z,32.40
2022-12-01T20:43:44.585Z,32.67
2022-12-01T20:46:12.937Z,31.27
2022-12-01T20:48:40.387Z,31.70
2022-12-01T20:51:09.083Z,32.60
2022-12-01T20:53:36.467Z,32.20
2022-12-01T20:56:08.689Z,33.07
2022-12-01T20:58:38.000Z,32.90
2022-12-01T21:01:16.347Z,32.47
2022-12-01T21:03:45.273Z,31.97
2022-12-01T21:06:13.791Z,32.70
2022-12-01T21:08:42.431Z,31.27
2022-12-01T21:11:41.701Z,32.10
2022-12-01T21:14:41.243Z,31.37
2022-12-01T21:17:32.543Z,32.70
2022-12-01T21:20:13.025Z,31.23
2022-12-01T21:22:40.088Z,32.47
2022-12-01T21:25:16.203Z,32.53
2022-12-01T21:27:43.026Z,29.33
2022-12-01T21:30:17.824Z,30.43
2022-12-01T21:32:45.246Z,31.93
2022-12-01T21:35:24.823Z,32.40
2022-12-01T21:37:58.427Z,30.47
2022-12-01T21:40:27.060Z,31.93
2022-12-01T21:42:53.957Z,31.27
2022-12-01T21:45:28.021Z,31.57
2022-12-01T21:48:06.239Z,31.60
2022-12-01T21:50:33.002Z,31.23
2022-12-01T21:52:59.762Z,32.53
2022-12-01T21:55:26.607Z,33.97
2022-12-01T21:57:54.170Z,31.93
2022-12-01T22:00:35.351Z,32.70
2022-12-01T22:03:08.353Z,32.40
2022-12-01T22:05:55.837Z,32.67
2022-12-01T22:08:34.308Z,30.30
2022-12-01T22:11:16.253Z,33.20
2022-12-01T22:13:50.696Z,33.00
2022-12-01T22:16:27.584Z,32.13
2022-12-01T22:19:01.313Z,35.07
2022-12-01T22:21:38.082Z,35.70
2022-12-01T22:24:10.894Z,33.20
2022-12-01T22:26:40.985Z,33.50
2022-12-01T22:29:29.642Z,35.30
2022-12-01T22:32:13.523Z,31.07
2022-12-01T22:34:49.338Z,32.87
2022-12-01T22:37:21.958Z,33.90
2022-12-01T22:39:54.075Z,35.60
2022-12-01T22:42:33.226Z,33.73
2022-12-01T22:45:22.083Z,32.50
2022-12-01T22:47:48.900Z,33.87
2022-12-01T22:50:27.978Z,33.73
2022-12-01T22:53:00.105Z,34.37
2022-12-01T22:55:26.922Z,33.60
2022-12-01T22:57:54.623Z,31.97
2022-12-01T23:00:23.215Z,34.40
2022-12-01T23:02:52.262Z,34.17
2022-12-01T23:05:30.709Z,33.10
2022-12-01T23:07:57.763Z,32.97
2022-12-01T23:10:28.946Z,33.33
2022-12-01T23:13:00.328Z,31.90
2022-12-01T23:15:33.783Z,33.10
2022-12-01T23:18:16.552Z,32.27
2022-12-01T23:20:46.109Z,32.57
2022-12-01T23:23:16.711Z,31.80
2022-12-01T23:25:44.615Z,30.80
2022-12-01T23:28:13.290Z,32.03
2022-12-01T23:30:43.433Z,30.43
2022-12-01T23:33:28.525Z,32.30
2022-12-01T23:36:00.412Z,31.60
2022-12-01T23:38:39.444Z,32.93
2022-12-01T23:41:33.605Z,32.57
2022-12-01T23:44:22.586Z,30.73
2022-12-01T23:46:55.110Z,28.83
2022-12-01T23:49:27.566Z,30.83
2022-12-01T23:51:56.025Z,30.67
2022-12-01T23:54:34.653Z,30.43
2022-12-01T23:57:09.147Z,31.03
2022-12-01T23:59:38.188Z,32.27
